sensor_id;sensor_type;location;lat;lon;timestamp;pressure;altitude;pressure_sealevel;temperature;humidity
73103;BME280;61294;65.988;29.172;2022-10-17T00:00:47;96705.84;;;5.34;100.00
73103;BME280;61294;65.988;29.172;2022-10-17T00:03:13;96695.50;;;5.28;100.00
73103;BME280;61294;65.988;29.172;2022-10-17T00:05:40;96719.72;;;5.38;100.00
73103;BME280;61294;65.988;29.172;2022-10-17T00:08:06;96716.22;;;5.39;100.00
73103;BME280;61294;65.988;29.172;2022-10-17T00:10:32;96714.53;;;5.36;100.00
73103;BME280;61294;65.988;29.172;2022-10-17T00:12:58;96698.16;;;5.25;100.00
73103;BME280;61294;65.988;29.172;2022-10-17T00:15:23;96718.84;;;5.37;100.00
73103;BME280;61294;65.988;29.172;2022-10-17T00:17:49;96699.94;;;5.23;100.00
73103;BME280;61294;65.988;29.172;2022-10-17T00:20:16;96706.72;;;5.36;100.00
73103;BME280;61294;65.988;29.172;2022-10-17T00:22:42;96666.03;;;5.21;100.00
73103;BME280;61294;65.988;29.172;2022-10-17T00:25:08;96657.34;;;5.21;100.00
73103;BME280;61294;65.988;29.172;2022-10-17T00:27:35;96666.81;;;5.26;100.00
73103;BME280;61294;65.988;29.172;2022-10-17T00:30:01;96674.53;;;5.34;100.00
73103;BME280;61294;65.988;29.172;2022-10-17T00:32:27;96671.97;;;5.31;100.00
73103;BME280;61294;65.988;29.172;2022-10-17T00:34:53;96627.97;;;5.06;100.00
73103;BME280;61294;65.988;29.172;2022-10-17T00:37:18;96678.84;;;5.36;100.00
73103;BME280;61294;65.988;29.172;2022-10-17T00:39:44;96635.69;;;5.14;100.00
73103;BME280;61294;65.988;29.172;2022-10-17T00:42:12;96637.31;;;5.21;100.00
73103;BME280;61294;65.988;29.172;2022-10-17T00:47:11;96654.66;;;5.24;100.00
73103;BME280;61294;65.988;29.172;2022-10-17T00:49:38;96653.78;;;5.25;100.00
73103;BME280;61294;65.988;29.172;2022-10-17T00:52:11;96650.28;;;5.26;100.00
73103;BME280;61294;65.988;29.172;2022-10-17T00:54:42;96653.72;;;5.29;100.00
73103;BME280;61294;65.988;29.172;2022-10-17T00:57:09;96638.09;;;5.26;100.00
73103;BME280;61294;65.988;29.172;2022-10-17T00:59:37;96620.13;;;5.08;100.00
73103;BME280;61294;65.988;29.172;2022-10-17T01:02:09;96613.97;;;5.12;100.00
73103;BME280;61294;65.988;29.172;2022-10-17T01:04:36;96607.94;;;5.08;100.00
73103;BME280;61294;65.988;29.172;2022-10-17T01:07:03;96600.09;;;5.08;100.00
73103;BME280;61294;65.988;29.172;2022-10-17T01:09:29;96625.19;;;5.17;100.00
73103;BME280;61294;65.988;29.172;2022-10-17T01:18:12;96624.38;;;5.13;100.00
73103;BME280;61294;65.988;29.172;2022-10-17T01:24:02;96609.56;;;5.15;100.00
73103;BME280;61294;65.988;29.172;2022-10-17T01:27:09;96614.75;;;5.17;100.00
73103;BME280;61294;65.988;29.172;2022-10-17T01:29:52;96613.03;;;5.16;100.00
73103;BME280;61294;65.988;29.172;2022-10-17T01:32:41;96619.94;;;5.18;100.00
73103;BME280;61294;65.988;29.172;2022-10-17T01:38:06;96610.47;;;5.11;100.00
73103;BME280;61294;65.988;29.172;2022-10-17T01:40:43;96626.03;;;5.19;100.00
73103;BME280;61294;65.988;29.172;2022-10-17T01:44:09;96592.34;;;5.04;100.00
73103;BME280;61294;65.988;29.172;2022-10-17T01:48:57;96577.59;;;5.01;100.00
73103;BME280;61294;65.988;29.172;2022-10-17T01:51:35;96616.53;;;5.15;100.00
73103;BME280;61294;65.988;29.172;2022-10-17T01:54:09;96595.66;;;5.15;100.00
73103;BME280;61294;65.988;29.172;2022-10-17T01:56:36;96604.38;;;5.12;100.00
73103;BME280;61294;65.988;29.172;2022-10-17T01:59:12;96593.88;;;5.15;100.00
73103;BME280;61294;65.988;29.172;2022-10-17T02:01:40;96585.16;;;5.18;100.00
73103;BME280;61294;65.988;29.172;2022-10-17T02:04:08;96562.75;;;5.05;100.00
73103;BME280;61294;65.988;29.172;2022-10-17T02:06:35;96584.31;;;5.14;100.00
73103;BME280;61294;65.988;29.172;2022-10-17T02:09:24;96560.22;;;4.98;100.00
73103;BME280;61294;65.988;29.172;2022-10-17T02:20:33;96584.38;;;5.11;100.00
73103;BME280;61294;65.988;29.172;2022-10-17T02:23:19;96573.25;;;5.00;100.00
73103;BME280;61294;65.988;29.172;2022-10-17T02:26:10;96570.59;;;5.05;100.00
73103;BME280;61294;65.988;29.172;2022-10-17T02:28:44;96580.06;;;5.09;100.00
73103;BME280;61294;65.988;29.172;2022-10-17T02:31:42;96576.69;;;5.04;100.00
73103;BME280;61294;65.988;29.172;2022-10-17T02:34:23;96580.97;;;5.08;100.00
73103;BME280;61294;65.988;29.172;2022-10-17T02:36:52;96582.78;;;5.03;100.00
73103;BME280;61294;65.988;29.172;2022-10-17T02:39:22;96561.25;;;4.90;100.00
73103;BME280;61294;65.988;29.172;2022-10-17T02:41:50;96584.53;;;5.02;100.00
73103;BME280;61294;65.988;29.172;2022-10-17T02:44:17;96579.28;;;5.05;100.00
73103;BME280;61294;65.988;29.172;2022-10-17T02:46:51;96573.25;;;5.00;100.00
73103;BME280;61294;65.988;29.172;2022-10-17T02:49:27;96554.31;;;4.87;100.00
73103;BME280;61294;65.988;29.172;2022-10-17T02:52:07;96575.00;;;5.01;100.00
73103;BME280;61294;65.988;29.172;2022-10-17T02:54:54;96571.41;;;5.07;100.00
73103;BME280;61294;65.988;29.172;2022-10-17T02:57:38;96561.06;;;5.02;100.00
73103;BME280;61294;65.988;29.172;2022-10-17T03:00:08;96568.91;;;5.00;100.00
73103;BME280;61294;65.988;29.172;2022-10-17T03:02:44;96533.56;;;4.81;100.00
73103;BME280;61294;65.988;29.172;2022-10-17T03:05:12;96556.88;;;4.92;100.00
73103;BME280;61294;65.988;29.172;2022-10-17T03:07:38;96558.59;;;4.93;100.00
73103;BME280;61294;65.988;29.172;2022-10-17T03:10:04;96558.63;;;4.90;100.00
73103;BME280;61294;65.988;29.172;2022-10-17T03:12:30;96562.09;;;4.90;100.00
73103;BME280;61294;65.988;29.172;2022-10-17T03:14:56;96565.63;;;4.88;100.00
73103;BME280;61294;65.988;29.172;2022-10-17T03:17:21;96560.44;;;4.88;100.00
73103;BME280;61294;65.988;29.172;2022-10-17T03:19:47;96555.25;;;4.84;100.00
73103;BME280;61294;65.988;29.172;2022-10-17T03:22:12;96550.91;;;4.85;100.00
73103;BME280;61294;65.988;29.172;2022-10-17T03:24:38;96551.81;;;4.81;100.00
73103;BME280;61294;65.988;29.172;2022-10-17T03:27:04;96532.88;;;4.70;100.00
73103;BME280;61294;65.988;29.172;2022-10-17T03:29:29;96560.59;;;4.75;100.00
73103;BME280;61294;65.988;29.172;2022-10-17T03:31:55;96574.47;;;4.77;100.00
73103;BME280;61294;65.988;29.172;2022-10-17T03:34:21;96557.06;;;4.79;100.00
73103;BME280;61294;65.988;29.172;2022-10-17T03:36:46;96542.53;;;4.61;100.00
73103;BME280;61294;65.988;29.172;2022-10-17T03:39:12;96521.00;;;4.48;100.00
73103;BME280;61294;65.988;29.172;2022-10-17T03:41:38;96549.41;;;4.69;100.00
73103;BME280;61294;65.988;29.172;2022-10-17T03:44:04;96546.81;;;4.67;100.00
73103;BME280;61294;65.988;29.172;2022-10-17T03:46:29;96569.38;;;4.70;100.00
73103;BME280;61294;65.988;29.172;2022-10-17T03:48:55;96551.13;;;4.70;100.00
73103;BME280;61294;65.988;29.172;2022-10-17T03:51:21;96551.25;;;4.62;100.00
73103;BME280;61294;65.988;29.172;2022-10-17T03:53:46;96564.16;;;4.70;100.00
73103;BME280;61294;65.988;29.172;2022-10-17T03:56:18;96572.94;;;4.64;100.00
73103;BME280;61294;65.988;29.172;2022-10-17T03:58:44;96544.44;;;4.50;100.00
73103;BME280;61294;65.988;29.172;2022-10-17T04:01:12;96573.78;;;4.66;100.00
73103;BME280;61294;65.988;29.172;2022-10-17T04:03:38;96553.94;;;4.54;100.00
73103;BME280;61294;65.988;29.172;2022-10-17T04:06:05;96564.34;;;4.57;100.00
73103;BME280;61294;65.988;29.172;2022-10-17T04:08:31;96576.50;;;4.58;100.00
73103;BME280;61294;65.988;29.172;2022-10-17T04:11:01;96573.91;;;4.57;100.00
73103;BME280;61294;65.988;29.172;2022-10-17T04:13:28;96568.88;;;4.43;100.00
73103;BME280;61294;65.988;29.172;2022-10-17T04:16:05;96552.56;;;4.30;100.00
73103;BME280;61294;65.988;29.172;2022-10-17T04:18:31;96565.53;;;4.36;100.00
73103;BME280;61294;65.988;29.172;2022-10-17T04:21:00;96552.66;;;4.24;100.00
73103;BME280;61294;65.988;29.172;2022-10-17T04:23:26;96560.47;;;4.24;100.00
73103;BME280;61294;65.988;29.172;2022-10-17T04:25:58;96574.25;;;4.32;100.00
73103;BME280;61294;65.988;29.172;2022-10-17T04:28:25;96573.44;;;4.28;100.00
73103;BME280;61294;65.988;29.172;2022-10-17T04:31:05;96546.69;;;4.14;100.00
73103;BME280;61294;65.988;29.172;2022-10-17T04:33:32;96575.94;;;4.35;100.00
73103;BME280;61294;65.988;29.172;2022-10-17T04:36:00;96575.13;;;4.31;100.00
73103;BME280;61294;65.988;29.172;2022-10-17T04:38:27;96567.31;;;4.31;100.00
73103;BME280;61294;65.988;29.172;2022-10-17T04:40:53;96571.66;;;4.32;100.00
73103;BME280;61294;65.988;29.172;2022-10-17T04:43:21;96561.34;;;4.23;100.00
73103;BME280;61294;65.988;29.172;2022-10-17T04:45:46;96590.88;;;4.22;100.00
73103;BME280;61294;65.988;29.172;2022-10-17T04:48:12;96590.13;;;4.15;100.00
73103;BME280;61294;65.988;29.172;2022-10-17T04:50:38;96572.88;;;4.02;100.00
73103;BME280;61294;65.988;29.172;2022-10-17T04:53:03;96574.63;;;4.03;99.98
73103;BME280;61294;65.988;29.172;2022-10-17T04:55:29;96562.53;;;3.97;99.37
73103;BME280;61294;65.988;29.172;2022-10-17T04:57:55;96588.44;;;4.11;99.40
73103;BME280;61294;65.988;29.172;2022-10-17T05:00:20;96581.53;;;4.07;98.96
73103;BME280;61294;65.988;29.172;2022-10-17T05:02:46;96559.97;;;3.94;98.88
73103;BME280;61294;65.988;29.172;2022-10-17T05:05:12;96572.06;;;3.98;98.83
73103;BME280;61294;65.988;29.172;2022-10-17T05:07:40;96579.91;;;3.98;98.73
73103;BME280;61294;65.988;29.172;2022-10-17T05:10:07;96551.41;;;3.84;98.69
73103;BME280;61294;65.988;29.172;2022-10-17T05:12:32;96573.88;;;3.91;98.39
73103;BME280;61294;65.988;29.172;2022-10-17T05:14:58;96574.72;;;3.95;98.94
73103;BME280;61294;65.988;29.172;2022-10-17T05:17:24;96579.06;;;3.94;99.11
73103;BME280;61294;65.988;29.172;2022-10-17T05:19:49;96589.50;;;3.91;98.84
73103;BME280;61294;65.988;29.172;2022-10-17T05:22:15;96573.06;;;3.88;99.20
73103;BME280;61294;65.988;29.172;2022-10-17T05:24:41;96562.72;;;3.80;99.04
73103;BME280;61294;65.988;29.172;2022-10-17T05:27:06;96594.69;;;3.93;99.93
73103;BME280;61294;65.988;29.172;2022-10-17T05:29:33;96560.19;;;3.75;99.80
73103;BME280;61294;65.988;29.172;2022-10-17T05:31:59;96595.56;;;3.95;100.00
73103;BME280;61294;65.988;29.172;2022-10-17T05:34:25;96606.84;;;3.94;100.00
73103;BME280;61294;65.988;29.172;2022-10-17T05:36:50;96605.19;;;3.87;99.78
73103;BME280;61294;65.988;29.172;2022-10-17T05:39:16;96610.53;;;3.74;100.00
73103;BME280;61294;65.988;29.172;2022-10-17T05:41:45;96612.41;;;3.61;100.00
73103;BME280;61294;65.988;29.172;2022-10-17T05:44:11;96621.13;;;3.56;100.00
73103;BME280;61294;65.988;29.172;2022-10-17T05:46:38;96620.28;;;3.54;100.00
73103;BME280;61294;65.988;29.172;2022-10-17T05:49:03;96629.00;;;3.51;100.00
73103;BME280;61294;65.988;29.172;2022-10-17T05:51:30;96626.38;;;3.51;99.97
73103;BME280;61294;65.988;29.172;2022-10-17T05:53:57;96632.53;;;3.44;99.90
73103;BME280;61294;65.988;29.172;2022-10-17T05:56:22;96630.88;;;3.35;99.55
73103;BME280;61294;65.988;29.172;2022-10-17T05:58:48;96637.03;;;3.26;98.66
73103;BME280;61294;65.988;29.172;2022-10-17T06:01:14;96634.44;;;3.22;98.54
73103;BME280;61294;65.988;29.172;2022-10-17T06:03:39;96647.50;;;3.14;97.56
73103;BME280;61294;65.988;29.172;2022-10-17T06:06:09;96630.16;;;3.15;97.70
73103;BME280;61294;65.988;29.172;2022-10-17T06:08:35;96649.41;;;2.95;97.25
73103;BME280;61294;65.988;29.172;2022-10-17T06:11:00;96639.00;;;2.89;96.33
73103;BME280;61294;65.988;29.172;2022-10-17T06:13:26;96627.75;;;2.90;95.93
73103;BME280;61294;65.988;29.172;2022-10-17T06:15:52;96617.41;;;2.82;96.43
73103;BME280;61294;65.988;29.172;2022-10-17T06:18:17;96654.50;;;3.04;96.55
73103;BME280;61294;65.988;29.172;2022-10-17T06:20:43;96651.84;;;3.12;96.73
73103;BME280;61294;65.988;29.172;2022-10-17T06:23:09;96647.56;;;3.06;96.12
73103;BME280;61294;65.988;29.172;2022-10-17T06:25:35;96654.47;;;3.15;96.15
73103;BME280;61294;65.988;29.172;2022-10-17T06:28:00;96660.53;;;3.14;95.88
73103;BME280;61294;65.988;29.172;2022-10-17T06:30:26;96625.06;;;2.99;96.00
73103;BME280;61294;65.988;29.172;2022-10-17T06:32:52;96627.66;;;2.99;96.17
73103;BME280;61294;65.988;29.172;2022-10-17T06:35:18;96635.47;;;2.99;95.75
73103;BME280;61294;65.988;29.172;2022-10-17T06:37:44;96663.16;;;3.09;95.94
73103;BME280;61294;65.988;29.172;2022-10-17T06:40:10;96669.16;;;3.18;95.94
73103;BME280;61294;65.988;29.172;2022-10-17T06:42:37;96668.38;;;3.03;95.51
73103;BME280;61294;65.988;29.172;2022-10-17T06:45:04;96668.38;;;3.06;95.70
73103;BME280;61294;65.988;29.172;2022-10-17T06:47:30;96629.53;;;2.80;95.64
73103;BME280;61294;65.988;29.172;2022-10-17T06:49:55;96660.66;;;2.96;95.47
73103;BME280;61294;65.988;29.172;2022-10-17T06:52:21;96650.28;;;2.92;95.09
73103;BME280;61294;65.988;29.172;2022-10-17T06:54:47;96668.47;;;2.94;94.67
73103;BME280;61294;65.988;29.172;2022-10-17T06:57:13;96687.59;;;2.87;94.86
73103;BME280;61294;65.988;29.172;2022-10-17T06:59:39;96676.34;;;2.79;94.01
73103;BME280;61294;65.988;29.172;2022-10-17T07:02:05;96671.19;;;2.72;94.15
73103;BME280;61294;65.988;29.172;2022-10-17T07:04:30;96694.50;;;2.91;93.39
73103;BME280;61294;65.988;29.172;2022-10-17T07:06:56;96671.16;;;2.80;93.16
73103;BME280;61294;65.988;29.172;2022-10-17T07:09:22;96686.72;;;2.89;93.34
73103;BME280;61294;65.988;29.172;2022-10-17T07:11:48;96692.69;;;3.04;93.02
73103;BME280;61294;65.988;29.172;2022-10-17T07:14:14;96709.97;;;3.13;93.13
73103;BME280;61294;65.988;29.172;2022-10-17T07:16:40;96681.47;;;2.92;91.64
73103;BME280;61294;65.988;29.172;2022-10-17T07:19:05;96717.84;;;2.97;91.09
73103;BME280;61294;65.988;29.172;2022-10-17T07:21:31;96708.34;;;2.94;91.62
73103;BME280;61294;65.988;29.172;2022-10-17T07:23:57;96675.50;;;2.73;91.88
73103;BME280;61294;65.988;29.172;2022-10-17T07:26:23;96705.72;;;2.96;91.38
73103;BME280;61294;65.988;29.172;2022-10-17T07:28:51;96708.28;;;3.05;92.08
73103;BME280;61294;65.988;29.172;2022-10-17T07:31:18;96713.50;;;3.02;91.65
73103;BME280;61294;65.988;29.172;2022-10-17T07:33:45;96719.47;;;3.17;92.04
73103;BME280;61294;65.988;29.172;2022-10-17T07:36:13;96721.97;;;3.31;91.75
73103;BME280;61294;65.988;29.172;2022-10-17T07:38:40;96719.34;;;3.35;91.59
73103;BME280;61294;65.988;29.172;2022-10-17T07:41:07;96719.34;;;3.35;90.90
73103;BME280;61294;65.988;29.172;2022-10-17T07:43:34;96682.91;;;3.38;90.88
73103;BME280;61294;65.988;29.172;2022-10-17T07:46:02;96705.47;;;3.38;89.91
73103;BME280;61294;65.988;29.172;2022-10-17T07:48:29;96705.31;;;3.55;89.88
73103;BME280;61294;65.988;29.172;2022-10-17T07:50:55;96717.44;;;3.56;88.65
73103;BME280;61294;65.988;29.172;2022-10-17T07:53:20;96702.66;;;3.62;88.72
73103;BME280;61294;65.988;29.172;2022-10-17T07:55:46;96678.44;;;3.53;87.87
73103;BME280;61294;65.988;29.172;2022-10-17T07:58:14;96693.03;;;3.71;87.36
73103;BME280;61294;65.988;29.172;2022-10-17T08:00:40;96711.41;;;3.55;87.93
73103;BME280;61294;65.988;29.172;2022-10-17T08:03:06;96712.00;;;3.85;88.05
73103;BME280;61294;65.988;29.172;2022-10-17T08:05:32;96721.84;;;3.52;88.46
73103;BME280;61294;65.988;29.172;2022-10-17T08:07:58;96706.44;;;3.20;89.56
73103;BME280;61294;65.988;29.172;2022-10-17T08:10:24;96715.91;;;3.30;89.92
73103;BME280;61294;65.988;29.172;2022-10-17T08:12:56;96747.13;;;3.30;90.11
73103;BME280;61294;65.988;29.172;2022-10-17T08:15:23;96754.13;;;3.26;90.45
73103;BME280;61294;65.988;29.172;2022-10-17T08:17:50;96720.41;;;3.03;90.38
73103;BME280;61294;65.988;29.172;2022-10-17T08:20:15;96755.84;;;3.24;90.07
73103;BME280;61294;65.988;29.172;2022-10-17T08:22:42;96748.91;;;3.23;89.87
73103;BME280;61294;65.988;29.172;2022-10-17T08:25:08;96769.78;;;3.16;89.82
73103;BME280;61294;65.988;29.172;2022-10-17T08:27:34;96753.31;;;3.12;89.92
73103;BME280;61294;65.988;29.172;2022-10-17T08:30:00;96756.81;;;3.05;89.99
73103;BME280;61294;65.988;29.172;2022-10-17T08:32:27;96760.31;;;3.05;89.84
73103;BME280;61294;65.988;29.172;2022-10-17T08:34:55;96760.31;;;2.99;90.48
73103;BME280;61294;65.988;29.172;2022-10-17T08:37:22;96779.34;;;3.07;90.88
73103;BME280;61294;65.988;29.172;2022-10-17T08:39:48;96771.53;;;3.09;90.91
73103;BME280;61294;65.988;29.172;2022-10-17T08:42:44;96765.44;;;3.15;90.62
73103;BME280;61294;65.988;29.172;2022-10-17T08:45:45;96769.63;;;3.45;89.63
73103;BME280;61294;65.988;29.172;2022-10-17T08:48:17;96771.97;;;3.77;88.85
73103;BME280;61294;65.988;29.172;2022-10-17T08:51:04;96734.16;;;4.28;85.78
73103;BME280;61294;65.988;29.172;2022-10-17T08:53:48;96770.81;;;4.11;87.01
73103;BME280;61294;65.988;29.172;2022-10-17T08:56:25;96783.41;;;3.55;88.17
73103;BME280;61294;65.988;29.172;2022-10-17T08:58:52;96742.78;;;3.35;89.03
73103;BME280;61294;65.988;29.172;2022-10-17T09:01:31;96770.53;;;3.33;89.05
73103;BME280;61294;65.988;29.172;2022-10-17T09:06:44;96764.38;;;3.48;89.57
73103;BME280;61294;65.988;29.172;2022-10-17T09:17:52;96778.75;;;3.97;85.19
73103;BME280;61294;65.988;29.172;2022-10-17T09:20:22;96776.50;;;3.52;86.88
73103;BME280;61294;65.988;29.172;2022-10-17T09:23:01;96778.22;;;3.56;87.16
73103;BME280;61294;65.988;29.172;2022-10-17T09:25:39;96766.13;;;3.44;87.76
73103;BME280;61294;65.988;29.172;2022-10-17T09:28:36;96744.69;;;3.08;88.76
73103;BME280;61294;65.988;29.172;2022-10-17T09:31:22;96781.84;;;3.34;88.28
73103;BME280;61294;65.988;29.172;2022-10-17T09:33:50;96766.22;;;3.31;87.88
73103;BME280;61294;65.988;29.172;2022-10-17T09:36:34;96803.50;;;3.34;88.88
73103;BME280;61294;65.988;29.172;2022-10-17T09:39:15;96772.41;;;3.14;89.30
73103;BME280;61294;65.988;29.172;2022-10-17T09:41:49;96812.22;;;3.27;89.06
73103;BME280;61294;65.988;29.172;2022-10-17T09:44:20;96807.88;;;3.27;89.79
73103;BME280;61294;65.988;29.172;2022-10-17T09:49:38;96816.56;;;3.22;90.56
73103;BME280;61294;65.988;29.172;2022-10-17T09:52:08;96791.50;;;3.08;90.20
73103;BME280;61294;65.988;29.172;2022-10-17T09:57:13;96779.41;;;3.00;90.54
73103;BME280;61294;65.988;29.172;2022-10-17T09:59:47;96800.16;;;3.14;90.91
73103;BME280;61294;65.988;29.172;2022-10-17T10:02:24;96803.50;;;3.36;90.70
73103;BME280;61294;65.988;29.172;2022-10-17T10:05:02;96814.75;;;3.39;90.77
73103;BME280;61294;65.988;29.172;2022-10-17T10:07:31;96794.91;;;3.21;90.41
73103;BME280;61294;65.988;29.172;2022-10-17T10:09:58;96781.09;;;3.07;90.51
73103;BME280;61294;65.988;29.172;2022-10-17T10:12:26;96812.19;;;3.33;90.45
73103;BME280;61294;65.988;29.172;2022-10-17T10:14:53;96809.66;;;3.18;90.54
73103;BME280;61294;65.988;29.172;2022-10-17T10:17:36;96822.75;;;3.05;90.97
73103;BME280;61294;65.988;29.172;2022-10-17T10:20:33;96810.63;;;3.00;91.19
73103;BME280;61294;65.988;29.172;2022-10-17T10:23:11;96808.03;;;2.97;91.15
73103;BME280;61294;65.988;29.172;2022-10-17T10:25:48;96829.69;;;3.02;90.80
73103;BME280;61294;65.988;29.172;2022-10-17T10:28:16;96801.09;;;2.96;91.87
73103;BME280;61294;65.988;29.172;2022-10-17T10:30:47;96824.47;;;3.09;91.07
73103;BME280;61294;65.988;29.172;2022-10-17T10:33:14;96840.09;;;2.97;91.07
73103;BME280;61294;65.988;29.172;2022-10-17T10:35:39;96838.38;;;3.01;91.22
73103;BME280;61294;65.988;29.172;2022-10-17T10:38:13;96817.59;;;2.90;91.49
73103;BME280;61294;65.988;29.172;2022-10-17T10:40:46;96840.06;;;3.03;91.26
73103;BME280;61294;65.988;29.172;2022-10-17T10:43:31;96840.06;;;3.11;91.91
73103;BME280;61294;65.988;29.172;2022-10-17T10:45:58;96857.38;;;3.12;91.60
73103;BME280;61294;65.988;29.172;2022-10-17T10:48:27;96854.75;;;3.23;91.28
73103;BME280;61294;65.988;29.172;2022-10-17T10:50:58;96823.56;;;3.14;91.02
73103;BME280;61294;65.988;29.172;2022-10-17T10:53:33;96850.38;;;3.30;90.31
73103;BME280;61294;65.988;29.172;2022-10-17T10:56:15;96840.84;;;3.28;90.29
73103;BME280;61294;65.988;29.172;2022-10-17T10:58:51;96847.78;;;3.30;90.40
73103;BME280;61294;65.988;29.172;2022-10-17T11:06:39;96859.81;;;3.49;89.89
73103;BME280;61294;65.988;29.172;2022-10-17T11:12:19;96845.19;;;3.26;89.58
73103;BME280;61294;65.988;29.172;2022-10-17T11:14:59;96859.06;;;3.28;90.22
73103;BME280;61294;65.988;29.172;2022-10-17T11:17:58;96808.84;;;3.06;90.21
73103;BME280;61294;65.988;29.172;2022-10-17T11:20:47;96870.34;;;3.26;90.57
73103;BME280;61294;65.988;29.172;2022-10-17T11:23:40;96880.78;;;3.17;90.17
73103;BME280;61294;65.988;29.172;2022-10-17T11:26:15;96873.88;;;3.14;90.86
73103;BME280;61294;65.988;29.172;2022-10-17T11:28:51;96860.84;;;3.13;90.67
73103;BME280;61294;65.988;29.172;2022-10-17T11:31:19;96898.13;;;3.19;91.38
73103;BME280;61294;65.988;29.172;2022-10-17T11:33:56;96894.69;;;3.13;91.80
73103;BME280;61294;65.988;29.172;2022-10-17T11:36:30;96898.19;;;3.05;91.86
73103;BME280;61294;65.988;29.172;2022-10-17T11:39:12;96899.03;;;3.03;92.28
73103;BME280;61294;65.988;29.172;2022-10-17T11:42:08;96853.19;;;2.77;92.34
73103;BME280;61294;65.988;29.172;2022-10-17T11:44:38;96899.06;;;3.01;92.79
73103;BME280;61294;65.988;29.172;2022-10-17T11:47:27;96898.19;;;3.02;92.90
73103;BME280;61294;65.988;29.172;2022-10-17T11:52:45;96903.41;;;3.02;92.55
73103;BME280;61294;65.988;29.172;2022-10-17T11:55:20;96897.31;;;3.02;92.13
73103;BME280;61294;65.988;29.172;2022-10-17T12:05:51;96903.34;;;3.11;93.44
73103;BME280;61294;65.988;29.172;2022-10-17T12:13:48;96919.72;;;3.40;93.17
73103;BME280;61294;65.988;29.172;2022-10-17T12:18:45;96921.34;;;3.64;93.05
73103;BME280;61294;65.988;29.172;2022-10-17T12:21:12;96922.25;;;3.60;92.99
73103;BME280;61294;65.988;29.172;2022-10-17T12:23:38;96927.47;;;3.58;93.71
73103;BME280;61294;65.988;29.172;2022-10-17T12:26:07;96929.19;;;3.61;93.59
73103;BME280;61294;65.988;29.172;2022-10-17T12:31:06;96914.47;;;3.49;94.65
73103;BME280;61294;65.988;29.172;2022-10-17T12:33:38;96938.72;;;3.67;94.92
73103;BME280;61294;65.988;29.172;2022-10-17T12:38:42;96939.63;;;3.56;94.78
73103;BME280;61294;65.988;29.172;2022-10-17T12:41:09;96943.97;;;3.53;94.96
73103;BME280;61294;65.988;29.172;2022-10-17T12:43:49;96951.78;;;3.53;95.56
73103;BME280;61294;65.988;29.172;2022-10-17T12:49:36;96956.13;;;3.46;95.69
73103;BME280;61294;65.988;29.172;2022-10-17T12:57:53;96960.44;;;3.58;94.71
73103;BME280;61294;65.988;29.172;2022-10-17T13:00:42;96963.88;;;3.65;92.90
73103;BME280;61294;65.988;29.172;2022-10-17T13:03:17;96966.50;;;3.60;93.17
73103;BME280;61294;65.988;29.172;2022-10-17T13:05:48;96960.50;;;3.42;92.78
73103;BME280;61294;65.988;29.172;2022-10-17T13:08:24;96968.34;;;3.30;92.13
73103;BME280;61294;65.988;29.172;2022-10-17T13:10:52;96935.47;;;3.01;91.89
73103;BME280;61294;65.988;29.172;2022-10-17T13:13:42;96966.69;;;3.04;92.26
73103;BME280;61294;65.988;29.172;2022-10-17T13:18:54;96972.75;;;2.99;92.32
73103;BME280;61294;65.988;29.172;2022-10-17T13:21:20;96984.88;;;3.04;91.78
73103;BME280;61294;65.988;29.172;2022-10-17T13:23:46;97024.75;;;3.05;91.92
73103;BME280;61294;65.988;29.172;2022-10-17T13:26:18;97008.31;;;2.92;92.40
73103;BME280;61294;65.988;29.172;2022-10-17T13:29:04;97026.53;;;2.97;92.53
73103;BME280;61294;65.988;29.172;2022-10-17T13:31:36;97037.78;;;2.94;92.29
73103;BME280;61294;65.988;29.172;2022-10-17T13:34:04;97048.19;;;2.86;91.82
73103;BME280;61294;65.988;29.172;2022-10-17T13:36:31;97015.25;;;2.74;92.40
73103;BME280;61294;65.988;29.172;2022-10-17T13:39:06;97028.28;;;2.82;92.73
73103;BME280;61294;65.988;29.172;2022-10-17T13:41:33;97041.25;;;2.93;91.89
73103;BME280;61294;65.988;29.172;2022-10-17T13:44:09;97046.47;;;2.87;91.86
73103;BME280;61294;65.988;29.172;2022-10-17T13:46:38;97050.78;;;2.83;92.16
73103;BME280;61294;65.988;29.172;2022-10-17T13:49:29;97042.09;;;2.75;92.21
73103;BME280;61294;65.988;29.172;2022-10-17T13:51:57;97052.53;;;2.66;92.26
73103;BME280;61294;65.988;29.172;2022-10-17T13:54:38;97055.13;;;2.61;92.25
73103;BME280;61294;65.988;29.172;2022-10-17T13:57:15;97055.97;;;2.55;92.12
73103;BME280;61294;65.988;29.172;2022-10-17T13:59:43;97066.38;;;2.55;92.08
73103;BME280;61294;65.988;29.172;2022-10-17T14:02:29;97068.97;;;2.58;92.81
73103;BME280;61294;65.988;29.172;2022-10-17T14:05:07;97076.78;;;2.55;92.30
73103;BME280;61294;65.988;29.172;2022-10-17T14:07:41;97084.53;;;2.48;92.56
73103;BME280;61294;65.988;29.172;2022-10-17T14:10:22;97031.63;;;2.16;92.76
73103;BME280;61294;65.988;29.172;2022-10-17T14:12:50;97098.38;;;2.44;92.61
73103;BME280;61294;65.988;29.172;2022-10-17T14:15:17;97075.84;;;2.24;92.42
73103;BME280;61294;65.988;29.172;2022-10-17T14:17:44;97104.41;;;2.27;92.76
73103;BME280;61294;65.988;29.172;2022-10-17T14:20:20;97079.22;;;2.09;93.36
73103;BME280;61294;65.988;29.172;2022-10-17T14:22:47;97074.94;;;2.13;92.95
73103;BME280;61294;65.988;29.172;2022-10-17T14:30:48;97121.72;;;2.25;93.07
73103;BME280;61294;65.988;29.172;2022-10-17T14:33:25;97102.63;;;2.12;93.28
73103;BME280;61294;65.988;29.172;2022-10-17T14:35:55;97100.84;;;2.03;93.28
73103;BME280;61294;65.988;29.172;2022-10-17T14:38:21;97106.06;;;2.06;93.26
73103;BME280;61294;65.988;29.172;2022-10-17T14:41:19;97133.78;;;2.12;92.84
73103;BME280;61294;65.988;29.172;2022-10-17T14:43:55;97142.47;;;2.16;93.43
73103;BME280;61294;65.988;29.172;2022-10-17T14:46:22;97150.28;;;2.16;93.40
73103;BME280;61294;65.988;29.172;2022-10-17T14:49:01;97151.13;;;2.18;93.57